KMCI

Kansas City International Airport

Kansas City, Missouri, USA
METAR KMCI 151553Z 02004KT 10SM CLR 02/M04 A3022 RMK AO2 SLP240 T00221044 $
Observed Flight Rules
Dec-15 @ 15:53 UTC (38 minutes ago) Visual Flight Rules
Wind Visibility Clouds
20° at 4 knots 10 miles
  • Clear skies
Temperatures Readings
Current 2°C / 36°F
Dewpoint -4°C / 25°F
Humidity 65%
Altimeter 30.22" Hg
Pressure 1024 hPa
Elevation 320
METAR KMCI 151553Z 02004KT 10SM CLR 02/M04 A3022 RMK AO2 SLP240 T00221044 $
Observed Flight Rules
Dec-15 @ 15:53 UTC
(38 minutes ago)
VFR
Wind Visibility
20° at 4 knots 10 miles
Clouds
  • Clear skies
Temperature Dewpoint
2°C / 36°F -4°C / 25°F
Humidity Altimeter Pressure
65% 30.22" Hg 1024 hPa